Página principal
METAR-TAF:

METAR-TAF

Aeroportos :

Aeroporto Internacional L.F. Wade

Bermudas, Bermudas

latitude: 32-22N, longitude: 064-41W, altura: 6 m

Observação actual do tempo

O boletim foi feito há 20 minutos, às 08:55 UTC
Vento 7 kt de nordeste
Temperatura 23°C
Humidade 69%
Pressão 1019 hPa
Visibilidade 10 km ou mais
Poucas nuvensa uma altura de 3000 ft
Poucas nuvensa uma altura de 30000 ft

METAR: TXKF 180855Z 04007KT 9999 FEW030 FEW300 23/17 Q1019

Hora: 06:15 (09:15 UTC)

Previsão

O boletim foi feito há 3 horas e 42 minutos, às 05:33 UTC
Previsão válida de 18 às 06 UTC a 19 às 06 UTC
Vento 9 kt de es-nordeste
Visibilidade 10 km ou mais
Poucas nuvensa uma altura de 3000 ft
Nuvens dispersasa uma altura de 30000 ft

TAF: TXKF 180533Z 1806/1906 07009KT 9999 FEW030 SCT300

Observações e previsões do tempo de mais de 4000 aeroportos (mensagens METAR e TAF).

As estações disponíveis são os pontos amarelos e vermelhos sobre o mapa.

Mova o rato sobre o mapa para ver o nome da estação.

Depois clique no ponto para visualizar as observações e previsões meteorológicas.

Para alterar o mapa : clique nos botões verdes com uma cruz preta para aumentar o zoom; no botão verde com uma pitada de zoom; ou nas setas verdes para mapas adjacentes.


METAR-TAF: